Latest Weather Observations for Kanagulk

IDV60801

Issued at 7:02 pm EDT Tuesday 12 December 2017 (issued every 30 minutes, with the page automatically refreshed every 10 minutes)

About weather observations | Map of weather stations | Latest weather observations for VIC | Other Formats
Station Details ID: 079097 Name: KANAGULK Lat: -37.12 Lon: 141.80 Height: 188.8 m
Data from the previous 72 hours. | See also: Recent months at Kanagulk
Date/Time
EDT
Temp
°C
App
Temp
°C
Dew
Point
°C
Rel
Hum
%
Delta-T
°C
Wind Press
QNH
hPa
Press
MSL
hPa
Rain since
9am
mm
Dir  Spd
km/h
Gust
km/h
Spd
kts
Gust
kts
12/07:00pm 31.9 29.2 -2.2 11 16.0 WSW 2 11 1 6 1011.9 1011.4 0.0
12/06:30pm 31.5 28.3 -3.8 10 16.1 NW 4 11 2 6 1011.8 1011.3 0.0
12/06:00pm 31.5 28.4 -2.5 11 15.9 N 4 15 2 8 1012.1 1011.6 0.0
12/05:30pm 31.2 27.7 -2.7 11 15.7 NNW 6 13 3 7 1012.4 1011.9 0.0
12/05:00pm 31.4 27.6 -3.8 10 16.1 N 7 20 4 11 1012.7 1012.2 0.0
12/04:30pm 31.9 27.8 -6.4 8 16.8 W 7 17 4 9 1013.4 1012.8 0.0
12/04:00pm 31.6 28.0 -3.7 10 16.1 NNW 6 13 3 7 1013.7 1013.1 0.0
12/03:30pm 31.2 27.8 -0.5 13 15.3 NW 7 19 4 10 1014.1 1013.6 0.0
12/03:00pm 30.6 27.6 1.0 15 14.6 WNW 6 19 3 10 1014.5 1014.0 0.0
12/02:30pm 29.7 25.8 -1.6 13 14.6 N 9 15 5 8 1014.8 1014.3 0.0
12/02:00pm 29.6 26.2 -0.7 14 14.4 WNW 7 15 4 8 1015.2 1014.7 0.0
12/01:30pm 28.5 25.4 1.1 17 13.3 WNW 7 17 4 9 1015.6 1015.1 0.0
12/01:00pm 28.1 24.0 -0.1 16 13.4 WNW 11 17 6 9 1016.0 1015.5 0.0
12/12:30pm 26.4 23.3 3.6 23 11.4 NW 9 17 5 9 1016.4 1015.9 0.0
12/12:00pm 25.7 22.3 4.2 25 10.8 NW 11 17 6 9 1016.7 1016.2 0.0
12/11:30am 25.0 21.9 3.6 25 10.6 NNW 9 15 5 8 1017.0 1016.5 0.0
12/11:00am 24.0 22.1 7.6 35 8.7 NNW 7 15 4 8 1017.3 1016.8 0.0
12/10:30am 22.3 20.7 8.8 42 7.2 N 7 13 4 7 1017.5 1017.0 0.0
12/10:00am 20.5 19.2 10.0 51 5.7 NNE 7 11 4 6 1017.6 1017.1 0.0
12/09:30am 19.0 17.9 10.6 58 4.6 NNE 7 11 4 6 1018.0 1017.5 0.0
12/09:00am 16.9 14.8 9.8 63 3.8 ENE 11 13 6 7 1017.9 1017.4 0.0
12/08:30am 14.4 13.4 10.2 76 2.2 NE 6 9 3 5 1017.9 1017.4 0.0
12/08:00am 13.3 12.9 11.0 86 1.2 E 4 7 2 4 1017.9 1017.4 0.0
12/07:30am 11.0 9.9 10.8 99 0.1 SE 7 11 4 6 1017.7 1017.2 0.0
12/07:00am 9.9 9.9 9.9 100 0.0 CALM 0 0 0 0 1017.4 1016.9 0.0
12/06:30am 7.6 7.0 7.5 99 0.0 CALM 0 0 0 0 1017.3 1016.8 0.0
12/06:00am 7.6 5.7 7.5 99 0.0 S 7 9 4 5 1017.0 1016.5 0.0
12/05:30am 8.0 5.8 7.9 99 0.0 SE 9 9 5 5 1016.8 1016.3 0.0
12/05:00am 7.3 5.3 7.2 99 0.0 SSE 7 9 4 5 1017.1 1016.6 0.0
12/04:30am 8.7 7.2 8.6 99 0.0 SSW 6 9 3 5 1017.2 1016.7 0.0
12/04:00am 8.1 5.9 8.0 99 0.0 S 9 11 5 6 1017.3 1016.8 0.0
12/03:30am 9.1 7.6 9.0 99 0.0 SE 7 11 4 6 1017.4 1016.9 0.0
12/03:00am 9.5 7.3 9.2 98 0.1 SSE 11 15 6 8 1017.8 1017.3 0.0
12/02:30am 10.1 7.6 9.6 97 0.3 SSE 13 19 7 10 1018.2 1017.7 0.0
12/02:00am 10.5 7.6 9.7 95 0.4 SSE 15 20 8 11 1018.4 1017.9 0.0
12/01:30am 10.9 7.6 9.7 92 0.6 SSE 17 20 9 11 1019.0 1018.5 0.0
12/01:00am 11.5 7.9 9.9 90 0.8 SSE 19 26 10 14 1019.3 1018.8 0.0
12/12:30am 11.9 8.2 10.0 88 1.0 SSE 20 26 11 14 1019.6 1019.1 0.0
12/12:00am 12.1 8.9 10.0 87 1.1 SSE 17 24 9 13 1019.8 1019.3 0.0
 
Date/Time
EDT
Temp
°C
App
Temp
°C
Dew
Point
°C
Rel
Hum
%
Delta-T
°C
Wind Press
QNH
hPa
Press
MSL
hPa
Rain since
9am
mm
Dir  Spd
km/h
Gust
km/h
Spd
kts
Gust
kts
11/11:30pm 12.7 9.5 10.1 84 1.4 SSE 17 22 9 12 1020.1 1019.6 0.0
11/11:00pm 13.2 10.2 10.6 84 1.4 SSE 17 22 9 12 1020.2 1019.7 0.0
11/10:30pm 14.1 10.7 10.7 80 1.8 SSE 19 26 10 14 1020.2 1019.7 0.0
11/10:00pm 15.3 11.8 10.9 75 2.4 SSE 20 30 11 16 1020.1 1019.6 0.0
11/09:30pm 16.1 12.7 11.1 72 2.7 SSE 20 28 11 15 1019.8 1019.3 0.0
11/09:00pm 17.2 13.4 11.2 68 3.3 SSE 22 33 12 18 1020.0 1019.5 0.0
11/08:30pm 19.0 15.8 11.8 63 4.0 SSE 20 26 11 14 1019.8 1019.3 0.0
11/08:00pm 20.4 17.1 11.6 57 4.9 S 20 30 11 16 1019.4 1018.9 0.0
11/07:30pm 22.0 18.3 11.4 51 5.9 SSE 22 30 12 16 1019.3 1018.8 0.0
11/07:00pm 23.2 19.6 10.6 45 7.0 S 20 28 11 15 1019.0 1018.5 0.0
11/06:30pm 24.0 20.3 10.3 42 7.6 S 20 30 11 16 1019.0 1018.5 0.0
11/06:00pm 24.3 20.5 9.8 40 8.0 S 20 30 11 16 1018.9 1018.4 0.0
11/05:30pm 24.6 20.9 10.1 40 8.1 S 20 33 11 18 1018.9 1018.4 0.0
11/05:00pm 25.1 21.9 9.8 38 8.5 S 17 26 9 14 1018.9 1018.4 0.0
11/04:30pm 25.7 22.7 10.7 39 8.5 S 17 28 9 15 1019.1 1018.6 0.0
11/04:00pm 25.5 22.0 10.1 38 8.6 SSE 19 26 10 14 1019.3 1018.8 0.0
11/03:30pm 24.8 21.2 9.9 39 8.3 SSE 19 28 10 15 1019.4 1018.9 0.0
11/03:00pm 24.1 20.7 9.3 39 8.1 SSE 17 24 9 13 1019.5 1019.0 0.0
11/02:30pm 24.8 22.1 10.3 40 8.1 SSW 15 24 8 13 1020.0 1019.5 0.0
11/02:00pm 23.4 21.0 10.1 43 7.3 SSW 13 24 7 13 1020.5 1020.0 0.0
11/01:30pm 22.9 20.6 10.3 45 7.0 SW 13 20 7 11 1020.9 1020.4 0.0
11/01:00pm 22.0 19.2 9.9 46 6.6 SSW 15 24 8 13 1021.3 1020.8 0.0
11/12:30pm 21.8 19.3 9.7 46 6.6 S 13 20 7 11 1021.5 1021.0 0.0
11/12:00pm 20.0 17.1 9.6 51 5.6 S 15 24 8 13 1021.7 1021.2 0.0
11/11:30am 20.9 18.1 10.1 50 5.9 SSE 15 26 8 14 1021.8 1021.3 0.0
11/11:00am 19.3 16.1 9.8 54 5.1 SSE 17 26 9 14 1022.2 1021.7 0.0
11/10:30am 18.0 14.8 9.9 59 4.3 S 17 22 9 12 1022.2 1021.7 0.0
11/10:00am 17.0 13.3 9.4 61 4.0 SSE 19 28 10 15 1022.1 1021.6 0.0
11/09:30am 16.1 12.5 10.0 67 3.2 SSE 19 28 10 15 1022.4 1021.9 0.0
11/09:00am 16.0 12.4 10.7 71 2.8 S 20 26 11 14 1022.4 1021.9 0.0
11/08:30am 14.4 10.5 10.8 79 1.9 S 22 33 12 18 1022.1 1021.6 0.0
11/08:00am 13.0 10.5 10.9 87 1.1 SSE 15 19 8 10 1022.0 1021.5 0.0
11/07:30am 11.9 9.4 11.1 95 0.4 SSE 15 22 8 12 1021.6 1021.1 0.0
11/07:00am 10.5 8.5 10.3 99 0.1 S 11 15 6 8 1021.3 1020.8 0.0
11/06:30am 9.4 7.2 9.3 99 0.0 S 11 15 6 8 1021.1 1020.6 0.0
11/06:00am 9.1 7.2 9.0 99 0.0 S 9 11 5 6 1020.9 1020.4 0.0
11/05:30am 9.4 7.2 9.3 99 0.0 SSE 11 17 6 9 1020.7 1020.2 0.0
11/05:00am 10.2 7.8 9.9 98 0.2 SSE 13 15 7 8 1020.8 1020.3 0.0
11/04:30am 10.4 7.9 9.8 96 0.3 S 13 20 7 11 1020.9 1020.4 0.0
11/04:00am 10.6 7.8 10.1 97 0.3 S 15 20 8 11 1020.9 1020.4 0.0
11/03:30am 10.2 8.1 9.7 97 0.3 SSE 11 15 6 8 1020.8 1020.3 0.0
11/03:00am 10.8 8.4 10.0 95 0.4 SSE 13 20 7 11 1021.1 1020.6 0.0
11/02:30am 11.3 8.2 10.4 94 0.5 SSE 17 24 9 13 1021.6 1021.1 0.0
11/02:00am 11.4 8.4 10.6 95 0.4 S 17 24 9 13 1021.8 1021.3 0.0
11/01:30am 11.3 9.0 10.4 94 0.5 SSE 13 19 7 10 1022.0 1021.5 0.0
11/01:00am 12.0 9.1 10.9 93 0.6 S 17 24 9 13 1022.6 1022.1 0.0
11/12:30am 12.2 9.7 11.1 93 0.6 S 15 19 8 10 1022.7 1022.2 0.0
11/12:00am 12.3 10.5 10.7 90 0.8 S 11 15 6 8 1023.0 1022.5 0.0
 
Date/Time
EDT
Temp
°C
App
Temp
°C
Dew
Point
°C
Rel
Hum
%
Delta-T
°C
Wind Press
QNH
hPa
Press
MSL
hPa
Rain since
9am
mm
Dir  Spd
km/h
Gust
km/h
Spd
kts
Gust
kts
10/11:30pm 13.0 10.8 10.7 86 1.2 S 13 19 7 10 1023.0 1022.5 0.0
10/11:00pm 14.1 11.6 11.1 82 1.6 S 15 20 8 11 1023.0 1022.5 0.0
10/10:30pm 14.9 12.4 11.1 78 2.0 S 15 20 8 11 1022.8 1022.3 0.0
10/10:00pm 15.9 13.1 11.5 75 2.4 S 17 24 9 13 1022.6 1022.1 0.0
10/09:30pm 16.9 14.6 11.8 72 2.8 S 15 20 8 11 1022.5 1022.0 0.0
10/09:00pm 18.2 15.2 12.0 67 3.4 S 19 26 10 14 1022.3 1021.8 0.0
10/08:30pm 19.7 17.1 12.0 61 4.3 S 17 24 9 13 1022.0 1021.5 0.0
10/08:00pm 21.0 18.1 12.2 57 5.0 S 19 26 10 14 1021.7 1021.2 0.0
10/07:30pm 22.9 20.5 11.3 48 6.5 S 15 22 8 12 1021.5 1021.0 0.0
10/07:00pm 23.6 20.3 11.0 45 7.1 S 19 26 10 14 1021.3 1020.8 0.0
10/06:30pm 24.6 21.6 10.8 42 7.8 S 17 22 9 12 1021.1 1020.6 0.0
10/06:00pm 24.2 21.2 10.5 42 7.6 SSW 17 26 9 14 1021.1 1020.6 0.0
10/05:30pm 24.4 21.0 9.2 38 8.3 SSW 17 24 9 13 1021.1 1020.6 0.0
10/05:00pm 24.6 21.8 10.1 40 8.0 SSW 15 26 8 14 1021.2 1020.7 0.0
10/04:30pm 25.1 22.6 10.9 41 8.0 SSW 15 28 8 15 1021.3 1020.8 0.0
10/04:00pm 25.5 22.7 10.1 38 8.6 SSW 15 24 8 13 1021.4 1020.9 0.0
10/03:30pm 24.7 21.9 8.6 36 8.7 WSW 13 20 7 11 1021.5 1021.0 0.0
10/03:00pm 24.5 22.1 10.0 40 8.0 SSW 13 20 7 11 1021.7 1021.2 0.0
10/02:30pm 23.6 21.0 9.2 40 7.8 SW 13 20 7 11 1022.0 1021.5 0.0
10/02:00pm 23.4 21.4 10.1 43 7.3 SW 11 20 6 11 1022.2 1021.7 0.0
10/01:30pm 22.6 19.8 8.7 41 7.5 WSW 13 26 7 14 1022.7 1022.2 0.0
10/01:00pm 22.3 20.7 10.1 46 6.7 W 9 17 5 9 1023.0 1022.5 0.0
10/12:30pm 21.5 19.0 9.7 47 6.4 SW 13 20 7 11 1023.2 1022.8 0.0
10/12:00pm 20.5 18.8 9.7 50 5.8 SW 9 17 5 9 1023.6 1023.2 0.0
10/11:30am 19.2 17.7 9.1 52 5.4 S 7 17 4 9 1023.7 1023.3 0.0
10/11:00am 18.7 17.5 10.3 58 4.5 SSW 7 17 4 9 1023.8 1023.4 0.0
10/10:30am 17.5 15.4 9.7 60 4.1 SSW 11 20 6 11 1023.9 1023.5 0.0
10/10:00am 16.6 14.9 9.8 64 3.6 SSW 9 17 5 9 1024.1 1023.7 0.0
10/09:30am 15.8 13.3 9.7 67 3.2 WSW 13 19 7 10 1024.3 1023.8 0.0
10/09:00am 15.2 12.7 9.6 69 2.9 SSW 13 19 7 10 1024.3 1023.8 0.0
10/08:30am 14.5 12.5 10.1 75 2.3 SSW 11 19 6 10 1024.0 1023.6 0.0
10/08:00am 13.5 12.4 12.1 91 0.8 S 9 11 5 6 1023.8 1023.4 0.0
10/07:30am 11.4 11.5 11.4 100 0.0 SSW 2 7 1 4 1023.5 1023.1 0.0
10/07:00am 9.3 9.2 9.3 100 0.0 CALM 0 0 0 0 1023.3 1022.9 0.0
10/06:30am 7.2 6.5 7.1 99 0.0 CALM 0 0 0 0 1023.0 1022.5 0.0
10/06:00am 7.6 5.9 7.5 99 0.0 SW 6 7 3 4 1022.8 1022.3 0.0
10/05:30am 8.1 6.5 8.0 99 0.0 SSW 6 7 3 4 1022.6 1022.1 0.0
10/05:00am 7.7 6.0 7.6 99 0.0 SW 6 7 3 4 1022.5 1022.0 0.0
10/04:30am 7.7 6.0 7.6 99 0.0 SSW 6 7 3 4 1022.4 1021.9 0.0
10/04:00am 8.6 7.1 8.5 99 0.0 SSW 6 7 3 4 1022.5 1022.0 0.0
10/03:30am 9.0 7.6 8.9 99 0.0 SSW 6 7 3 4 1022.5 1022.0 0.0
10/03:00am 8.8 7.2 8.7 99 0.0 SW 7 7 4 4 1022.6 1022.1 0.0
10/02:30am 9.3 9.1 9.2 99 0.0 CALM 0 0 0 0 1022.6 1022.1 0.0
10/02:00am 9.5 9.4 9.4 99 0.0 CALM 0 0 0 0 1022.7 1022.2 0.0
10/01:30am 10.4 10.1 10.2 99 0.1 SSW 2 7 1 4 1022.9 1022.4 0.0
10/01:00am 10.5 9.9 10.3 99 0.1 SSW 4 6 2 3 1023.1 1022.7 0.0
10/12:30am 11.4 10.5 10.8 96 0.3 SSW 6 7 3 4 1023.1 1022.7 0.0
10/12:00am 12.3 11.5 11.2 93 0.6 SSW 6 9 3 5 1023.4 1023.0 0.0
 
Date/Time
EDT
Temp
°C
App
Temp
°C
Dew
Point
°C
Rel
Hum
%
Delta-T
°C
Wind Press
QNH
hPa
Press
MSL
hPa
Rain since
9am
mm
Dir  Spd
km/h
Gust
km/h
Spd
kts
Gust
kts
09/11:30pm 12.1 12.5 11.2 94 0.5 CALM 0 0 0 0 1023.5 1023.1 0.0
09/11:00pm 13.0 12.9 10.9 87 1.1 SW 2 7 1 4 1023.6 1023.2 0.0
09/10:30pm 14.1 13.2 11.3 83 1.5 SW 7 9 4 5 1023.5 1023.1 0.0
09/10:00pm 14.6 13.5 10.8 78 2.0 SW 7 11 4 6 1023.3 1022.9 0.0
09/09:30pm 15.2 13.7 10.4 73 2.5 SW 9 15 5 8 1023.1 1022.7 0.0
09/09:00pm 16.1 14.6 10.6 70 2.9 SSW 9 13 5 7 1022.7 1022.2 0.0
09/08:30pm 17.2 14.9 10.6 65 3.6 SW 13 22 7 12 1022.6 1022.1 0.0
09/08:00pm 18.1 16.1 10.2 60 4.2 SW 11 19 6 10 1022.3 1021.8 0.0
09/07:30pm 20.2 18.3 10.6 54 5.3 WSW 11 20 6 11 1022.0 1021.5 0.0

Other Formats:

Comma delimited format used in spreadsheet applications
http://www.bom.gov.au/fwo/IDV60801/IDV60801.95827.axf

JavaScript Object Notation format (JSON) in row-major order
http://www.bom.gov.au/fwo/IDV60801/IDV60801.95827.json